sensor_id;sensor_type;location;lat;lon;timestamp;pressure;altitude;pressure_sealevel;temperature;humidity
65685;BME280;52405;50.844;-1.062;2022-09-20T00:00:32;102618.56;;;16.47;60.94
65685;BME280;52405;50.844;-1.062;2022-09-20T00:02:58;102616.91;;;16.49;60.88
65685;BME280;52405;50.844;-1.062;2022-09-20T00:05:23;102615.94;;;16.47;60.83
65685;BME280;52405;50.844;-1.062;2022-09-20T00:07:49;102617.66;;;16.47;61.25
65685;BME280;52405;50.844;-1.062;2022-09-20T00:10:14;102612.41;;;16.47;61.51
65685;BME280;52405;50.844;-1.062;2022-09-20T00:12:40;102619.31;;;16.45;61.25
65685;BME280;52405;50.844;-1.062;2022-09-20T00:15:06;102618.44;;;16.44;61.08
65685;BME280;52405;50.844;-1.062;2022-09-20T00:17:32;102624.53;;;16.43;60.89
65685;BME280;52405;50.844;-1.062;2022-09-20T00:19:58;102626.13;;;16.40;61.17
65685;BME280;52405;50.844;-1.062;2022-09-20T00:22:23;102622.50;;;16.37;61.06
65685;BME280;52405;50.844;-1.062;2022-09-20T00:24:48;102615.28;;;16.32;61.43
65685;BME280;52405;50.844;-1.062;2022-09-20T00:27:14;102629.41;;;16.35;61.17
65685;BME280;52405;50.844;-1.062;2022-09-20T00:29:39;102625.78;;;16.32;60.91
65685;BME280;52405;50.844;-1.062;2022-09-20T00:32:05;102621.09;;;16.25;61.35
65685;BME280;52405;50.844;-1.062;2022-09-20T00:34:30;102632.59;;;16.28;61.64
65685;BME280;52405;50.844;-1.062;2022-09-20T00:37:14;102617.13;;;16.13;61.58
65685;BME280;52405;50.844;-1.062;2022-09-20T00:39:40;102638.56;;;16.24;61.63
65685;BME280;52405;50.844;-1.062;2022-09-20T00:42:05;102637.69;;;16.24;61.45
65685;BME280;52405;50.844;-1.062;2022-09-20T00:45:05;102636.66;;;16.20;61.75
65685;BME280;52405;50.844;-1.062;2022-09-20T00:47:38;102639.25;;;16.20;61.26
65685;BME280;52405;50.844;-1.062;2022-09-20T00:50:13;102634.03;;;16.20;61.45
65685;BME280;52405;50.844;-1.062;2022-09-20T00:52:44;102640.03;;;16.17;62.05
65685;BME280;52405;50.844;-1.062;2022-09-20T00:55:12;102640.03;;;16.17;61.64
65685;BME280;52405;50.844;-1.062;2022-09-20T00:57:40;102614.19;;;16.06;61.69
65685;BME280;52405;50.844;-1.062;2022-09-20T01:00:09;102625.69;;;16.09;61.95
65685;BME280;52405;50.844;-1.062;2022-09-20T01:02:42;102637.41;;;16.17;62.08
65685;BME280;52405;50.844;-1.062;2022-09-20T01:05:11;102635.69;;;16.18;61.88
65685;BME280;52405;50.844;-1.062;2022-09-20T01:07:38;102627.50;;;16.10;61.73
65685;BME280;52405;50.844;-1.062;2022-09-20T01:10:04;102636.50;;;16.17;61.56
65685;BME280;52405;50.844;-1.062;2022-09-20T01:12:32;102639.06;;;16.15;61.50
65685;BME280;52405;50.844;-1.062;2022-09-20T01:15:01;102643.41;;;16.15;62.29
65685;BME280;52405;50.844;-1.062;2022-09-20T01:17:28;102642.44;;;16.13;61.98
65685;BME280;52405;50.844;-1.062;2022-09-20T01:26:06;102654.38;;;16.06;62.41
65685;BME280;52405;50.844;-1.062;2022-09-20T01:28:37;102649.03;;;16.03;62.33
65685;BME280;52405;50.844;-1.062;2022-09-20T01:33:50;102646.25;;;16.00;62.25
65685;BME280;52405;50.844;-1.062;2022-09-20T01:36:38;102648.00;;;15.99;62.60
65685;BME280;52405;50.844;-1.062;2022-09-20T01:39:57;102636.25;;;15.91;62.23
65685;BME280;52405;50.844;-1.062;2022-09-20T01:41:58;102649.66;;;15.97;62.09
65685;BME280;52405;50.844;-1.062;2022-09-20T01:47:08;102655.72;;;15.96;62.63
65685;BME280;52405;50.844;-1.062;2022-09-20T01:49:54;102655.72;;;15.96;62.79
65685;BME280;52405;50.844;-1.062;2022-09-20T02:04:27;102647.19;;;15.81;62.38
65685;BME280;52405;50.844;-1.062;2022-09-20T02:07:06;102652.03;;;15.73;62.49
65685;BME280;52405;50.844;-1.062;2022-09-20T02:09:58;102652.78;;;15.71;62.48
65685;BME280;52405;50.844;-1.062;2022-09-20T02:12:52;102652.63;;;15.68;62.28
65685;BME280;52405;50.844;-1.062;2022-09-20T02:15:39;102648.16;;;15.65;63.06
65685;BME280;52405;50.844;-1.062;2022-09-20T02:18:26;102643.63;;;15.61;62.90
65685;BME280;52405;50.844;-1.062;2022-09-20T02:23:50;102641.63;;;15.55;62.50
65685;BME280;52405;50.844;-1.062;2022-09-20T02:38:10;102638.50;;;15.45;62.58
65685;BME280;52405;50.844;-1.062;2022-09-20T02:43:37;102634.06;;;15.43;62.81
65685;BME280;52405;50.844;-1.062;2022-09-20T02:51:40;102640.16;;;15.42;62.65
65685;BME280;52405;50.844;-1.062;2022-09-20T02:59:43;102637.38;;;15.39;63.28
65685;BME280;52405;50.844;-1.062;2022-09-20T03:05:31;102639.72;;;15.33;63.33
65685;BME280;52405;50.844;-1.062;2022-09-20T03:08:32;102638.75;;;15.31;62.82
65685;BME280;52405;50.844;-1.062;2022-09-20T03:15:22;102635.81;;;15.25;63.19
65685;BME280;52405;50.844;-1.062;2022-09-20T03:17:37;102635.72;;;15.22;63.46
65685;BME280;52405;50.844;-1.062;2022-09-20T03:20:45;102636.44;;;15.19;63.43
65685;BME280;52405;50.844;-1.062;2022-09-20T03:29:08;102636.97;;;15.12;63.85
65685;BME280;52405;50.844;-1.062;2022-09-20T03:37:42;102634.97;;;15.07;63.82
65685;BME280;52405;50.844;-1.062;2022-09-20T03:40:34;102638.34;;;15.04;64.53
65685;BME280;52405;50.844;-1.062;2022-09-20T03:43:30;102636.44;;;15.01;64.65
65685;BME280;52405;50.844;-1.062;2022-09-20T03:46:16;102638.94;;;14.98;64.59
65685;BME280;52405;50.844;-1.062;2022-09-20T03:56:43;102633.78;;;14.82;64.37
65685;BME280;52405;50.844;-1.062;2022-09-20T04:04:18;102640.81;;;14.65;65.69
65685;BME280;52405;50.844;-1.062;2022-09-20T04:20:46;102624.00;;;14.09;66.23
65685;BME280;52405;50.844;-1.062;2022-09-20T04:23:44;102639.19;;;14.16;66.35
65685;BME280;52405;50.844;-1.062;2022-09-20T04:26:14;102638.69;;;14.07;66.79
65685;BME280;52405;50.844;-1.062;2022-09-20T04:28:51;102640.03;;;13.99;66.98
65685;BME280;52405;50.844;-1.062;2022-09-20T04:33:53;102643.94;;;13.91;66.85
65685;BME280;52405;50.844;-1.062;2022-09-20T04:36:51;102647.13;;;13.85;67.84
65685;BME280;52405;50.844;-1.062;2022-09-20T04:39:49;102638.97;;;13.79;67.74
65685;BME280;52405;50.844;-1.062;2022-09-20T05:11:19;102655.56;;;13.17;68.94
65685;BME280;52405;50.844;-1.062;2022-09-20T05:26:07;102655.78;;;12.90;69.66
65685;BME280;52405;50.844;-1.062;2022-09-20T05:34:32;102663.03;;;12.79;69.61
65685;BME280;52405;50.844;-1.062;2022-09-20T05:42:34;102673.09;;;12.73;70.54
65685;BME280;52405;50.844;-1.062;2022-09-20T05:48:11;102665.06;;;12.70;70.36
65685;BME280;52405;50.844;-1.062;2022-09-20T06:02:14;102674.63;;;12.69;70.97
65685;BME280;52405;50.844;-1.062;2022-09-20T06:04:59;102678.22;;;12.71;70.90
65685;BME280;52405;50.844;-1.062;2022-09-20T06:15:53;102680.13;;;12.74;70.45
65685;BME280;52405;50.844;-1.062;2022-09-20T06:18:24;102685.97;;;12.85;71.07
65685;BME280;52405;50.844;-1.062;2022-09-20T06:23:34;102695.91;;;12.92;71.03
65685;BME280;52405;50.844;-1.062;2022-09-20T06:26:12;102686.53;;;12.96;70.84
65685;BME280;52405;50.844;-1.062;2022-09-20T06:28:45;102700.13;;;13.05;70.84
65685;BME280;52405;50.844;-1.062;2022-09-20T06:31:13;102697.88;;;13.11;70.73
65685;BME280;52405;50.844;-1.062;2022-09-20T06:33:43;102701.72;;;13.18;70.84
65685;BME280;52405;50.844;-1.062;2022-09-20T06:36:15;102675.09;;;13.08;70.27
65685;BME280;52405;50.844;-1.062;2022-09-20T06:42:13;102718.16;;;13.46;69.85
65685;BME280;52405;50.844;-1.062;2022-09-20T06:44:39;102726.31;;;13.53;69.37
65685;BME280;52405;50.844;-1.062;2022-09-20T06:47:11;102717.22;;;13.61;69.50
65685;BME280;52405;50.844;-1.062;2022-09-20T06:49:37;102704.97;;;13.60;69.46
65685;BME280;52405;50.844;-1.062;2022-09-20T06:52:04;102718.88;;;13.75;68.77
65685;BME280;52405;50.844;-1.062;2022-09-20T06:54:31;102721.00;;;13.82;68.93
65685;BME280;52405;50.844;-1.062;2022-09-20T06:56:59;102718.81;;;13.90;68.50
65685;BME280;52405;50.844;-1.062;2022-09-20T06:59:26;102713.09;;;13.97;68.18
65685;BME280;52405;50.844;-1.062;2022-09-20T07:01:52;102720.50;;;14.06;68.12
65685;BME280;52405;50.844;-1.062;2022-09-20T07:04:18;102719.13;;;14.13;67.70
65685;BME280;52405;50.844;-1.062;2022-09-20T07:06:43;102717.50;;;14.15;67.47
65685;BME280;52405;50.844;-1.062;2022-09-20T07:09:09;102698.97;;;14.10;67.33
65685;BME280;52405;50.844;-1.062;2022-09-20T07:11:35;102731.28;;;14.29;67.31
65685;BME280;52405;50.844;-1.062;2022-09-20T07:14:01;102723.94;;;14.38;67.40
65685;BME280;52405;50.844;-1.062;2022-09-20T07:16:26;102717.25;;;14.43;66.95
65685;BME280;52405;50.844;-1.062;2022-09-20T07:18:52;102721.13;;;14.51;66.68
65685;BME280;52405;50.844;-1.062;2022-09-20T07:21:19;102723.06;;;14.55;66.76
65685;BME280;52405;50.844;-1.062;2022-09-20T07:23:45;102723.50;;;14.63;66.60
65685;BME280;52405;50.844;-1.062;2022-09-20T07:26:26;102719.66;;;14.73;66.09
65685;BME280;52405;50.844;-1.062;2022-09-20T07:28:53;102725.50;;;14.85;66.22
65685;BME280;52405;50.844;-1.062;2022-09-20T07:31:21;102724.25;;;14.95;65.58
65685;BME280;52405;50.844;-1.062;2022-09-20T07:33:47;102727.47;;;15.07;64.91
65685;BME280;52405;50.844;-1.062;2022-09-20T07:36:12;102727.16;;;15.19;64.34
65685;BME280;52405;50.844;-1.062;2022-09-20T07:38:39;102725.28;;;15.34;64.54
65685;BME280;52405;50.844;-1.062;2022-09-20T07:41:04;102704.66;;;15.40;64.04
65685;BME280;52405;50.844;-1.062;2022-09-20T07:43:30;102706.63;;;15.64;63.95
65685;BME280;52405;50.844;-1.062;2022-09-20T07:45:57;102739.03;;;16.04;63.86
65685;BME280;52405;50.844;-1.062;2022-09-20T07:48:25;102733.75;;;16.43;62.74
65685;BME280;52405;50.844;-1.062;2022-09-20T07:50:57;102711.72;;;16.80;61.42
65685;BME280;52405;50.844;-1.062;2022-09-20T07:53:23;102738.72;;;17.40;61.43
65685;BME280;52405;50.844;-1.062;2022-09-20T07:55:57;102721.25;;;17.86;58.98
65685;BME280;52405;50.844;-1.062;2022-09-20T07:58:22;102744.22;;;18.38;58.91
65685;BME280;52405;50.844;-1.062;2022-09-20T08:00:57;102736.66;;;18.73;56.94
65685;BME280;52405;50.844;-1.062;2022-09-20T08:03:23;102738.44;;;19.00;56.19
65685;BME280;52405;50.844;-1.062;2022-09-20T08:05:50;102736.16;;;19.38;55.03
65685;BME280;52405;50.844;-1.062;2022-09-20T08:08:17;102738.19;;;19.75;54.07
65685;BME280;52405;50.844;-1.062;2022-09-20T08:10:45;102740.28;;;20.17;52.37
65685;BME280;52405;50.844;-1.062;2022-09-20T08:13:12;102741.31;;;20.54;51.22
65685;BME280;52405;50.844;-1.062;2022-09-20T08:15:38;102737.69;;;20.83;50.02
65685;BME280;52405;50.844;-1.062;2022-09-20T08:18:05;102740.22;;;21.14;49.33
65685;BME280;52405;50.844;-1.062;2022-09-20T08:20:35;102745.69;;;21.59;48.56
65685;BME280;52405;50.844;-1.062;2022-09-20T08:23:01;102741.47;;;22.11;47.77
65685;BME280;52405;50.844;-1.062;2022-09-20T08:25:27;102748.66;;;22.62;45.80
65685;BME280;52405;50.844;-1.062;2022-09-20T08:27:54;102750.09;;;22.95;45.08
65685;BME280;52405;50.844;-1.062;2022-09-20T08:30:19;102745.34;;;23.27;44.48
65685;BME280;52405;50.844;-1.062;2022-09-20T08:32:45;102749.41;;;23.65;43.52
65685;BME280;52405;50.844;-1.062;2022-09-20T08:35:10;102751.59;;;23.94;42.91
65685;BME280;52405;50.844;-1.062;2022-09-20T08:37:36;102747.31;;;24.05;41.41
65685;BME280;52405;50.844;-1.062;2022-09-20T08:40:03;102752.66;;;24.07;41.50
65685;BME280;52405;50.844;-1.062;2022-09-20T08:42:37;102742.09;;;24.13;39.54
65685;BME280;52405;50.844;-1.062;2022-09-20T08:45:06;102743.09;;;24.24;40.40
65685;BME280;52405;50.844;-1.062;2022-09-20T08:47:38;102745.97;;;24.44;39.21
65685;BME280;52405;50.844;-1.062;2022-09-20T08:50:10;102724.03;;;24.62;38.73
65685;BME280;52405;50.844;-1.062;2022-09-20T08:52:44;102756.09;;;24.82;37.74
65685;BME280;52405;50.844;-1.062;2022-09-20T08:55:15;102756.19;;;24.91;38.32
65685;BME280;52405;50.844;-1.062;2022-09-20T08:57:41;102741.94;;;24.85;37.48
65685;BME280;52405;50.844;-1.062;2022-09-20T09:00:16;102752.66;;;24.91;36.33
65685;BME280;52405;50.844;-1.062;2022-09-20T09:02:42;102762.38;;;24.92;36.35
65685;BME280;52405;50.844;-1.062;2022-09-20T09:08:05;102768.50;;;24.83;36.94
65685;BME280;52405;50.844;-1.062;2022-09-20T09:10:36;102767.47;;;24.66;37.42
65685;BME280;52405;50.844;-1.062;2022-09-20T09:13:04;102769.19;;;24.60;37.20
65685;BME280;52405;50.844;-1.062;2022-09-20T09:15:33;102767.41;;;24.61;36.69
65685;BME280;52405;50.844;-1.062;2022-09-20T09:17:59;102747.00;;;24.54;36.67
65685;BME280;52405;50.844;-1.062;2022-09-20T09:20:25;102763.91;;;24.63;36.47
65685;BME280;52405;50.844;-1.062;2022-09-20T09:23:25;102768.28;;;24.58;36.27
65685;BME280;52405;50.844;-1.062;2022-09-20T09:25:52;102753.09;;;24.50;36.81
65685;BME280;52405;50.844;-1.062;2022-09-20T09:28:24;102773.56;;;24.55;35.80
65685;BME280;52405;50.844;-1.062;2022-09-20T09:30:50;102764.63;;;24.52;36.15
65685;BME280;52405;50.844;-1.062;2022-09-20T09:36:06;102760.91;;;24.33;34.50
65685;BME280;52405;50.844;-1.062;2022-09-20T09:38:39;102779.25;;;24.13;35.48
65685;BME280;52405;50.844;-1.062;2022-09-20T09:41:19;102783.13;;;23.72;35.92
65685;BME280;52405;50.844;-1.062;2022-09-20T09:43:59;102774.63;;;23.35;36.88
65685;BME280;52405;50.844;-1.062;2022-09-20T09:46:30;102770.03;;;23.22;36.52
65685;BME280;52405;50.844;-1.062;2022-09-20T09:49:14;102770.03;;;23.22;36.17
65685;BME280;52405;50.844;-1.062;2022-09-20T09:51:41;102771.03;;;23.32;36.49
65685;BME280;52405;50.844;-1.062;2022-09-20T09:54:11;102776.56;;;23.45;36.43
65685;BME280;52405;50.844;-1.062;2022-09-20T10:00:14;102780.63;;;23.81;35.71
65685;BME280;52405;50.844;-1.062;2022-09-20T10:06:12;102770.75;;;23.74;35.77
65685;BME280;52405;50.844;-1.062;2022-09-20T10:08:54;102764.38;;;23.60;36.31
65685;BME280;52405;50.844;-1.062;2022-09-20T10:30:21;102765.88;;;23.41;36.77
65685;BME280;52405;50.844;-1.062;2022-09-20T10:33:01;102764.03;;;23.35;36.11
65685;BME280;52405;50.844;-1.062;2022-09-20T10:44:01;102762.28;;;23.37;36.58
65685;BME280;52405;50.844;-1.062;2022-09-20T10:46:44;102765.03;;;23.43;36.90
65685;BME280;52405;50.844;-1.062;2022-09-20T11:10:37;102745.03;;;24.39;34.21
65685;BME280;52405;50.844;-1.062;2022-09-20T11:14:12;102750.22;;;24.30;33.07
65685;BME280;52405;50.844;-1.062;2022-09-20T11:16:28;102755.44;;;24.17;33.79
65685;BME280;52405;50.844;-1.062;2022-09-20T11:19:04;102744.81;;;24.20;34.15
65685;BME280;52405;50.844;-1.062;2022-09-20T11:21:57;102744.06;;;24.31;33.88
65685;BME280;52405;50.844;-1.062;2022-09-20T11:24:37;102714.75;;;24.21;34.33
65685;BME280;52405;50.844;-1.062;2022-09-20T11:27:30;102736.25;;;24.46;34.21
65685;BME280;52405;50.844;-1.062;2022-09-20T11:32:35;102731.81;;;24.43;34.16
65685;BME280;52405;50.844;-1.062;2022-09-20T11:35:23;102732.66;;;24.42;34.04
65685;BME280;52405;50.844;-1.062;2022-09-20T11:38:21;102732.84;;;24.56;33.17
65685;BME280;52405;50.844;-1.062;2022-09-20T11:40:57;102741.69;;;24.55;34.18
65685;BME280;52405;50.844;-1.062;2022-09-20T11:43:25;102739.81;;;24.47;34.74
65685;BME280;52405;50.844;-1.062;2022-09-20T11:45:57;102730.91;;;24.43;33.18
65685;BME280;52405;50.844;-1.062;2022-09-20T11:48:25;102735.31;;;24.39;33.93
65685;BME280;52405;50.844;-1.062;2022-09-20T11:56:36;102729.69;;;24.10;33.86
65685;BME280;52405;50.844;-1.062;2022-09-20T11:59:04;102732.22;;;24.01;34.49
65685;BME280;52405;50.844;-1.062;2022-09-20T12:01:37;102739.22;;;23.94;33.89
65685;BME280;52405;50.844;-1.062;2022-09-20T12:06:37;102723.91;;;23.73;33.60
65685;BME280;52405;50.844;-1.062;2022-09-20T12:09:06;102736.25;;;23.73;33.50
65685;BME280;52405;50.844;-1.062;2022-09-20T12:11:45;102734.47;;;23.70;34.00
65685;BME280;52405;50.844;-1.062;2022-09-20T12:14:31;102725.50;;;23.60;33.54
65685;BME280;52405;50.844;-1.062;2022-09-20T12:16:56;102724.59;;;23.61;33.72
65685;BME280;52405;50.844;-1.062;2022-09-20T12:24:25;102720.63;;;23.27;35.21
65685;BME280;52405;50.844;-1.062;2022-09-20T12:32:49;102726.81;;;22.74;37.28
65685;BME280;52405;50.844;-1.062;2022-09-20T12:41:19;102723.56;;;23.50;37.40
65685;BME280;52405;50.844;-1.062;2022-09-20T12:43:50;102722.81;;;23.59;37.08
65685;BME280;52405;50.844;-1.062;2022-09-20T12:46:34;102723.75;;;23.62;36.38
65685;BME280;52405;50.844;-1.062;2022-09-20T12:49:31;102721.16;;;23.67;37.66
65685;BME280;52405;50.844;-1.062;2022-09-20T12:55:40;102699.59;;;23.41;36.59
65685;BME280;52405;50.844;-1.062;2022-09-20T13:03:35;102722.59;;;23.43;37.99
65685;BME280;52405;50.844;-1.062;2022-09-20T13:08:56;102726.06;;;23.36;37.75
65685;BME280;52405;50.844;-1.062;2022-09-20T13:11:48;102718.97;;;23.37;37.49
65685;BME280;52405;50.844;-1.062;2022-09-20T13:14:28;102722.56;;;23.40;37.73
65685;BME280;52405;50.844;-1.062;2022-09-20T13:17:02;102711.97;;;23.40;37.95
65685;BME280;52405;50.844;-1.062;2022-09-20T13:19:35;102721.59;;;23.35;37.42
65685;BME280;52405;50.844;-1.062;2022-09-20T13:24:47;102716.22;;;23.29;38.16
65685;BME280;52405;50.844;-1.062;2022-09-20T13:27:21;102716.22;;;23.29;38.32
65685;BME280;52405;50.844;-1.062;2022-09-20T13:29:47;102713.41;;;23.18;38.08
65685;BME280;52405;50.844;-1.062;2022-09-20T13:32:26;102719.59;;;23.19;38.32
65685;BME280;52405;50.844;-1.062;2022-09-20T13:40:25;102723.88;;;23.09;38.46
65685;BME280;52405;50.844;-1.062;2022-09-20T13:43:02;102720.25;;;23.04;38.53
65685;BME280;52405;50.844;-1.062;2022-09-20T13:45:30;102700.66;;;22.94;38.71
65685;BME280;52405;50.844;-1.062;2022-09-20T13:47:58;102721.13;;;23.04;38.73
65685;BME280;52405;50.844;-1.062;2022-09-20T13:52:56;102725.28;;;22.90;38.65
65685;BME280;52405;50.844;-1.062;2022-09-20T13:55:28;102710.94;;;22.77;38.59
65685;BME280;52405;50.844;-1.062;2022-09-20T13:57:55;102717.97;;;22.74;39.28
65685;BME280;52405;50.844;-1.062;2022-09-20T14:00:23;102713.44;;;22.68;39.49
65685;BME280;52405;50.844;-1.062;2022-09-20T14:02:51;102711.63;;;22.65;39.70
65685;BME280;52405;50.844;-1.062;2022-09-20T14:05:20;102714.50;;;22.78;39.41
65685;BME280;52405;50.844;-1.062;2022-09-20T14:07:47;102713.63;;;22.79;38.60
65685;BME280;52405;50.844;-1.062;2022-09-20T14:12:52;102708.13;;;22.66;38.94
65685;BME280;52405;50.844;-1.062;2022-09-20T14:15:19;102705.34;;;22.59;39.49
65685;BME280;52405;50.844;-1.062;2022-09-20T14:17:46;102706.97;;;22.50;39.11
65685;BME280;52405;50.844;-1.062;2022-09-20T14:20:15;102712.09;;;22.41;38.95
65685;BME280;52405;50.844;-1.062;2022-09-20T14:22:42;102711.09;;;22.35;39.77
65685;BME280;52405;50.844;-1.062;2022-09-20T14:27:36;102716.16;;;22.25;39.83
65685;BME280;52405;50.844;-1.062;2022-09-20T14:30:04;102716.03;;;22.18;39.74
65685;BME280;52405;50.844;-1.062;2022-09-20T14:32:36;102715.88;;;22.10;39.85
65685;BME280;52405;50.844;-1.062;2022-09-20T14:35:13;102719.09;;;21.93;39.91
65685;BME280;52405;50.844;-1.062;2022-09-20T14:37:52;102711.78;;;21.80;40.24
65685;BME280;52405;50.844;-1.062;2022-09-20T14:40:22;102704.44;;;21.68;40.61
65685;BME280;52405;50.844;-1.062;2022-09-20T14:43:00;102708.72;;;21.62;40.43
65685;BME280;52405;50.844;-1.062;2022-09-20T14:50:43;102710.44;;;21.22;41.85
65685;BME280;52405;50.844;-1.062;2022-09-20T14:55:58;102703.75;;;20.99;42.69
65685;BME280;52405;50.844;-1.062;2022-09-20T14:58:24;102684.97;;;20.87;42.93
65685;BME280;52405;50.844;-1.062;2022-09-20T15:01:00;102698.28;;;20.92;43.04
65685;BME280;52405;50.844;-1.062;2022-09-20T15:03:47;102667.13;;;20.78;42.82
65685;BME280;52405;50.844;-1.062;2022-09-20T15:06:13;102691.34;;;20.95;42.93
65685;BME280;52405;50.844;-1.062;2022-09-20T15:08:38;102687.25;;;21.08;43.00
65685;BME280;52405;50.844;-1.062;2022-09-20T15:11:04;102689.34;;;21.23;42.83
65685;BME280;52405;50.844;-1.062;2022-09-20T15:13:30;102691.47;;;21.40;42.66
65685;BME280;52405;50.844;-1.062;2022-09-20T15:15:57;102680.28;;;21.51;42.00
65685;BME280;52405;50.844;-1.062;2022-09-20T15:18:28;102673.41;;;21.58;41.44
65685;BME280;52405;50.844;-1.062;2022-09-20T15:20:58;102670.78;;;21.60;41.63
65685;BME280;52405;50.844;-1.062;2022-09-20T15:23:24;102669.06;;;21.62;41.26
65685;BME280;52405;50.844;-1.062;2022-09-20T15:25:51;102668.19;;;21.63;41.05
65685;BME280;52405;50.844;-1.062;2022-09-20T15:28:19;102668.22;;;21.64;40.93
65685;BME280;52405;50.844;-1.062;2022-09-20T15:30:49;102669.16;;;21.66;40.94
65685;BME280;52405;50.844;-1.062;2022-09-20T15:33:16;102671.94;;;21.74;41.11
65685;BME280;52405;50.844;-1.062;2022-09-20T15:35:43;102664.19;;;21.82;40.83
65685;BME280;52405;50.844;-1.062;2022-09-20T15:38:10;102668.72;;;21.87;40.46
65685;BME280;52405;50.844;-1.062;2022-09-20T15:40:43;102663.38;;;21.86;40.13
65685;BME280;52405;50.844;-1.062;2022-09-20T15:43:12;102664.88;;;21.73;40.35
65685;BME280;52405;50.844;-1.062;2022-09-20T15:45:49;102662.88;;;21.60;40.80
65685;BME280;52405;50.844;-1.062;2022-09-20T15:48:17;102668.81;;;21.49;40.81
65685;BME280;52405;50.844;-1.062;2022-09-20T15:51:05;102665.00;;;21.38;40.93
65685;BME280;52405;50.844;-1.062;2022-09-20T15:55:59;102670.75;;;21.20;41.12
65685;BME280;52405;50.844;-1.062;2022-09-20T15:58:28;102663.56;;;21.13;41.52
65685;BME280;52405;50.844;-1.062;2022-09-20T16:01:04;102666.88;;;21.04;41.82
65685;BME280;52405;50.844;-1.062;2022-09-20T16:03:30;102651.47;;;20.85;41.89
65685;BME280;52405;50.844;-1.062;2022-09-20T16:06:01;102662.72;;;20.77;42.22
65685;BME280;52405;50.844;-1.062;2022-09-20T16:08:31;102673.75;;;20.61;42.81
65685;BME280;52405;50.844;-1.062;2022-09-20T16:10:57;102661.78;;;20.40;43.37
65685;BME280;52405;50.844;-1.062;2022-09-20T16:13:23;102673.91;;;20.34;43.79
65685;BME280;52405;50.844;-1.062;2022-09-20T16:15:56;102671.84;;;20.22;44.04
65685;BME280;52405;50.844;-1.062;2022-09-20T16:18:23;102634.13;;;19.93;44.30
65685;BME280;52405;50.844;-1.062;2022-09-20T16:21:08;102669.44;;;19.99;44.85
65685;BME280;52405;50.844;-1.062;2022-09-20T16:23:35;102673.63;;;19.91;44.65
65685;BME280;52405;50.844;-1.062;2022-09-20T16:26:06;102670.84;;;19.85;45.26
65685;BME280;52405;50.844;-1.062;2022-09-20T16:28:38;102668.94;;;19.81;45.15
65685;BME280;52405;50.844;-1.062;2022-09-20T16:31:04;102674.22;;;19.81;45.12
65685;BME280;52405;50.844;-1.062;2022-09-20T16:33:29;102675.13;;;19.81;44.91
65685;BME280;52405;50.844;-1.062;2022-09-20T16:35:57;102669.69;;;19.77;45.14
65685;BME280;52405;50.844;-1.062;2022-09-20T16:38:23;102658.94;;;19.71;45.38
65685;BME280;52405;50.844;-1.062;2022-09-20T16:40:49;102673.22;;;19.77;45.82
65685;BME280;52405;50.844;-1.062;2022-09-20T16:43:18;102678.47;;;19.76;45.60
65685;BME280;52405;50.844;-1.062;2022-09-20T16:45:59;102677.47;;;19.72;45.60
65685;BME280;52405;50.844;-1.062;2022-09-20T16:48:25;102682.63;;;19.69;45.32
65685;BME280;52405;50.844;-1.062;2022-09-20T16:50:56;102685.97;;;19.63;45.76
65685;BME280;52405;50.844;-1.062;2022-09-20T16:53:25;102684.91;;;19.57;46.10
65685;BME280;52405;50.844;-1.062;2022-09-20T16:55:50;102683.06;;;19.54;46.00
65685;BME280;52405;50.844;-1.062;2022-09-20T16:58:16;102684.81;;;19.54;46.36
65685;BME280;52405;50.844;-1.062;2022-09-20T17:00:42;102690.09;;;19.54;46.51
65685;BME280;52405;50.844;-1.062;2022-09-20T17:03:07;102686.53;;;19.53;46.52
65685;BME280;52405;50.844;-1.062;2022-09-20T17:05:33;102690.94;;;19.53;46.84
65685;BME280;52405;50.844;-1.062;2022-09-20T17:07:58;102694.38;;;19.50;46.58
65685;BME280;52405;50.844;-1.062;2022-09-20T17:10:24;102701.31;;;19.48;47.15
65685;BME280;52405;50.844;-1.062;2022-09-20T17:12:52;102692.41;;;19.43;47.32
65685;BME280;52405;50.844;-1.062;2022-09-20T17:15:22;102693.13;;;19.37;46.73
65685;BME280;52405;50.844;-1.062;2022-09-20T17:17:47;102694.72;;;19.32;47.29
65685;BME280;52405;50.844;-1.062;2022-09-20T17:20:13;102655.09;;;19.02;47.77
65685;BME280;52405;50.844;-1.062;2022-09-20T17:22:38;102695.25;;;19.22;47.68
65685;BME280;52405;50.844;-1.062;2022-09-20T17:25:04;102697.69;;;19.16;47.72
65685;BME280;52405;50.844;-1.062;2022-09-20T17:27:30;102696.66;;;19.11;48.03
65685;BME280;52405;50.844;-1.062;2022-09-20T17:29:56;102693.78;;;19.03;47.88
65685;BME280;52405;50.844;-1.062;2022-09-20T17:32:21;102700.63;;;18.98;48.67
65685;BME280;52405;50.844;-1.062;2022-09-20T17:34:47;102702.22;;;18.93;48.53
65685;BME280;52405;50.844;-1.062;2022-09-20T17:37:12;102691.31;;;18.82;49.12
65685;BME280;52405;50.844;-1.062;2022-09-20T17:39:38;102701.78;;;18.80;48.85
65685;BME280;52405;50.844;-1.062;2022-09-20T17:42:05;102698.94;;;18.74;49.34
65685;BME280;52405;50.844;-1.062;2022-09-20T17:44:30;102696.13;;;18.68;49.68
65685;BME280;52405;50.844;-1.062;2022-09-20T17:47:01;102701.25;;;18.65;49.05
65685;BME280;52405;50.844;-1.062;2022-09-20T17:49:26;102701.13;;;18.60;48.97
65685;BME280;52405;50.844;-1.062;2022-09-20T17:51:53;102708.00;;;18.57;49.76
65685;BME280;52405;50.844;-1.062;2022-09-20T17:54:20;102688.34;;;18.45;49.70
65685;BME280;52405;50.844;-1.062;2022-09-20T17:56:50;102708.59;;;18.48;49.56
65685;BME280;52405;50.844;-1.062;2022-09-20T17:59:17;102705.78;;;18.43;49.93
65685;BME280;52405;50.844;-1.062;2022-09-20T18:01:46;102710.91;;;18.39;50.15
65685;BME280;52405;50.844;-1.062;2022-09-20T18:04:12;102703.69;;;18.33;49.86
65685;BME280;52405;50.844;-1.062;2022-09-20T18:06:39;102708.75;;;18.28;50.36
65685;BME280;52405;50.844;-1.062;2022-09-20T18:09:10;102712.06;;;18.23;50.18
65685;BME280;52405;50.844;-1.062;2022-09-20T18:11:41;102717.25;;;18.20;51.13